地図

経路データ

SID SEASON NUMBER BASIN SUBBASIN NAME ISO_TIME NATURE LAT LON WMO_WIND WMO_PRES WMO_AGENCY TRACK_TYPE DIST2LAND LANDFALL IFLAG USA_AGENCY USA_ATCF_ID USA_LAT USA_LON USA_RECORD USA_STATUS USA_WIND USA_PRES USA_SSHS USA_R34_NE USA_R34_SE USA_R34_SW USA_R34_NW USA_R50_NE USA_R50_SE USA_R50_SW USA_R50_NW USA_R64_NE USA_R64_SE USA_R64_SW USA_R64_NW USA_POCI USA_ROCI USA_RMW USA_EYE TOKYO_LAT TOKYO_LON TOKYO_GRADE TOKYO_WIND TOKYO_PRES TOKYO_R50_DIR TOKYO_R50_LONG TOKYO_R50_SHORT TOKYO_R30_DIR TOKYO_R30_LONG TOKYO_R30_SHORT TOKYO_LAND CMA_LAT CMA_LON CMA_CAT CMA_WIND CMA_PRES HKO_LAT HKO_LON HKO_CAT HKO_WIND HKO_PRES NEWDELHI_LAT NEWDELHI_LON NEWDELHI_GRADE NEWDELHI_WIND NEWDELHI_PRES NEWDELHI_CI NEWDELHI_DP NEWDELHI_POCI REUNION_LAT REUNION_LON REUNION_TYPE REUNION_WIND REUNION_PRES REUNION_TNUM REUNION_CI REUNION_RMW REUNION_R34_NE REUNION_R34_SE REUNION_R34_SW REUNION_R34_NW REUNION_R50_NE REUNION_R50_SE REUNION_R50_SW REUNION_R50_NW REUNION_R64_NE REUNION_R64_SE REUNION_R64_SW REUNION_R64_NW BOM_LAT BOM_LON BOM_TYPE BOM_WIND BOM_PRES BOM_TNUM BOM_CI BOM_RMW BOM_R34_NE BOM_R34_SE BOM_R34_SW BOM_R34_NW BOM_R50_NE BOM_R50_SE BOM_R50_SW BOM_R50_NW BOM_R64_NE BOM_R64_SE BOM_R64_SW BOM_R64_NW BOM_ROCI BOM_POCI BOM_EYE BOM_POS_METHOD BOM_PRES_METHOD NADI_LAT NADI_LON NADI_CAT NADI_WIND NADI_PRES WELLINGTON_LAT WELLINGTON_LON WELLINGTON_WIND WELLINGTON_PRES DS824_LAT DS824_LON DS824_STAGE DS824_WIND DS824_PRES TD9636_LAT TD9636_LON TD9636_STAGE TD9636_WIND TD9636_PRES TD9635_LAT TD9635_LON TD9635_WIND TD9635_PRES TD9635_ROCI NEUMANN_LAT NEUMANN_LON NEUMANN_CLASS NEUMANN_WIND NEUMANN_PRES MLC_LAT MLC_LON MLC_CLASS MLC_WIND MLC_PRES USA_GUST BOM_GUST BOM_GUST_PER REUNION_GUST REUNION_GUST_PER USA_SEAHGT USA_SEARAD_NE USA_SEARAD_SE USA_SEARAD_SW USA_SEARAD_NW STORM_SPEED STORM_DIR
1970229N18086 1970 90 NI BB NOT_NAMED 1970-08-17 06:00:00 TS 18.1000 85.7000 main 139 128 O________O____ jtwc_io IO071970 18.1000 85.7000 -1 18.1000 85.7000 TC 4 350
1970229N18086 1970 90 NI BB NOT_NAMED 1970-08-17 09:00:00 TS 18.3025 85.6525 main 128 110 P________P____ IO071970 18.3025 85.6525 -1 18.3025 85.6525 TC 4 347
1970229N18086 1970 90 NI BB NOT_NAMED 1970-08-17 12:00:00 TS 18.5000 85.6000 main 110 90 O________O____ jtwc_io IO071970 18.5000 85.6000 -1 18.5000 85.6000 TC 25 4 343
1970229N18086 1970 90 NI BB NOT_NAMED 1970-08-17 15:00:00 TS 18.6933 85.5266 main 90 69 P________PO___ IO071970 18.6924 85.5299 -1 18.6924 85.5299 TC 25 18.7000 85.5000 1 5 336
1970229N18086 1970 90 NI BB NOT_NAMED 1970-08-17 18:00:00 TS 18.9189 85.4039 main 69 30 O________OP___ jtwc_io IO071970 18.9000 85.4000 -1 18.9000 85.4000 TC 25 18.9947 85.4193 1 6 330
1970229N18086 1970 90 NI BB NOT_NAMED 1970-08-17 21:00:00 TS 19.1857 85.2320 main 30 0 P________PP___ IO071970 19.1573 85.2175 -1 19.1573 85.2175 TC 25 19.2616 85.2709 1 7 318
1970229N18086 1970 90 NI BB NOT_NAMED 1970-08-18 00:00:00 TS 19.4243 84.9290 main 0 0 O________OP___ jtwc_io IO071970 19.4000 84.9000 -1 19.4000 84.9000 TC 25 19.4729 84.9871 1 8 300
1970229N18086 1970 90 NI BB NOT_NAMED 1970-08-18 03:00:00 TS 19.6013 84.4702 main 0 0 P________PO___ IO071970 19.6020 84.4553 -1 19.6020 84.4553 TC 25 19.6000 84.5000 1 11 283
1970229N18086 1970 90 NI BB NOT_NAMED 1970-08-18 06:00:00 TS 19.6753 83.7918 main 0 0 O________OP___ jtwc_io IO071970 19.7000 83.8000 -1 19.7000 83.8000 TC 25 19.6260 83.7755 1 15 270
1970229N18086 1970 90 NI BB NOT_NAMED 1970-08-18 09:00:00 TS 19.6059 82.8604 main 0 0 P________PP___ IO071970 19.6163 82.8341 -1 19.6163 82.8341 TC 25 19.5851 82.9128 1 17 265
1970229N18086 1970 90 NI BB NOT_NAMED 1970-08-18 12:00:00 TS 19.5087 81.9480 main 0 0 O________OP___ jtwc_io IO071970 19.5000 81.9000 -1 19.5000 81.9000 TC 25 19.5260 82.0440 1 14 266
1970229N18086 1970 90 NI BB NOT_NAMED 1970-08-18 15:00:00 TS 19.5128 81.3352 main 0 0 P________PO___ IO071970 19.5193 81.3528 -1 19.5193 81.3528 TC 25 19.5000 81.3000 1 9 275
1970229N18086 1970 90 NI BB NOT_NAMED 1970-08-18 18:00:00 TS 19.5891 80.9549 main 0 0 O________OP___ jtwc_io IO071970 19.6000 81.0000 -1 19.6000 81.0000 TC 25 19.5674 80.8646 1 7 284
1970229N18086 1970 90 NI BB NOT_NAMED 1970-08-18 21:00:00 TS 19.6781 80.6400 main 0 0 P________PP___ IO071970 19.6773 80.6774 -1 19.6773 80.6774 TC 25 19.6798 80.5651 1 6 292
1970229N18086 1970 90 NI BB NOT_NAMED 1970-08-19 00:00:00 TS 19.8091 80.3777 main 0 0 O________OP___ jtwc_io IO071970 19.8000 80.4000 -1 19.8000 80.4000 TC 25 19.8274 80.3330 1 6 302
1970229N18086 1970 90 NI BB NOT_NAMED 1970-08-19 03:00:00 TS 19.9899 80.1050 main 0 0 P________PO___ IO071970 19.9849 80.1075 -1 19.9849 80.1075 TC 25 20.0000 80.1000 1 7 306
1970229N18086 1970 90 NI BB NOT_NAMED 1970-08-19 06:00:00 TS 20.1953 79.8047 main 0 0 O________OP___ jtwc_io IO071970 20.2000 79.8000 -1 20.2000 79.8000 TC 25 20.1882 79.8117 1 7 304
1970229N18086 1970 90 NI BB NOT_NAMED 1970-08-19 09:00:00 TS 20.3973 79.4648 main 0 0 P________PP___ IO071970 20.4052 79.4602 -1 20.4052 79.4602 TC 25 20.3869 79.4709 1 8 301
1970229N18086 1970 90 NI BB NOT_NAMED 1970-08-19 12:00:00 TS 20.5960 79.0973 main 0 0 O________OP___ jtwc_io IO071970 20.6000 79.1000 -1 20.6000 79.1000 TC 25 20.5921 79.0946 1 8 299
1970229N18086 1970 90 NI BB NOT_NAMED 1970-08-19 15:00:00 NR 20.8000 78.7000 main 0 __________O___ IO071970 -1 TC 20.8000 78.7000 1 8 299

IBTrACS Databaseについて

本データベースは、米国NOAAが公開する1842年以降の世界の熱帯低気圧のベストトラックデータアーカイブInternational Best Track Archive for Climate Stewardship (IBTrACS)を、ウェブで閲覧しやすい形式に変換したものです。

最終更新日:2021-10-21